sensor_id;sensor_type;location;lat;lon;timestamp;pressure;altitude;pressure_sealevel;temperature;humidity
8573;BME280;4324;42.012;24.872;2024-03-23T00:54:23;99070.41;;;7.87;54.92
8573;BME280;4324;42.012;24.872;2024-03-23T00:56:50;99098.38;;;7.97;55.07
8573;BME280;4324;42.012;24.872;2024-03-23T00:59:19;99096.03;;;7.94;55.00
8573;BME280;4324;42.012;24.872;2024-03-23T01:01:47;99101.31;;;7.94;54.94
8573;BME280;4324;42.012;24.872;2024-03-23T01:04:13;99096.88;;;7.95;55.05
8573;BME280;4324;42.012;24.872;2024-03-23T01:06:40;99093.00;;;7.89;54.93
8573;BME280;4324;42.012;24.872;2024-03-23T01:09:07;99089.94;;;7.94;55.38
8573;BME280;4324;42.012;24.872;2024-03-23T01:11:36;99030.59;;;7.52;55.30
8573;BME280;4324;42.012;24.872;2024-03-23T01:14:02;98995.91;;;7.30;55.07
8573;BME280;4324;42.012;24.872;2024-03-23T01:16:29;99086.50;;;7.84;55.37
8573;BME280;4324;42.012;24.872;2024-03-23T01:18:55;99081.53;;;7.81;55.42
8573;BME280;4324;42.012;24.872;2024-03-23T01:21:22;99078.50;;;7.75;55.64
8573;BME280;4324;42.012;24.872;2024-03-23T01:23:48;99075.19;;;7.73;55.58
8573;BME280;4324;42.012;24.872;2024-03-23T01:26:16;99075.56;;;7.79;55.67
8573;BME280;4324;42.012;24.872;2024-03-23T01:28:42;99080.16;;;7.76;55.87
8573;BME280;4324;42.012;24.872;2024-03-23T01:31:09;99072.16;;;7.68;55.97
8573;BME280;4324;42.012;24.872;2024-03-23T01:33:35;99070.81;;;7.64;56.05
8573;BME280;4324;42.012;24.872;2024-03-23T01:36:03;99081.97;;;7.76;56.15
8573;BME280;4324;42.012;24.872;2024-03-23T01:38:29;99087.09;;;7.78;56.31
8573;BME280;4324;42.012;24.872;2024-03-23T01:40:59;99080.44;;;7.73;56.68
8573;BME280;4324;42.012;24.872;2024-03-23T01:43:26;99081.03;;;7.67;56.71
8573;BME280;4324;42.012;24.872;2024-03-23T01:45:53;99083.81;;;7.66;56.44
8573;BME280;4324;42.012;24.872;2024-03-23T01:48:19;99052.81;;;7.50;56.61
8573;BME280;4324;42.012;24.872;2024-03-23T01:50:47;99084.81;;;7.65;56.63
8573;BME280;4324;42.012;24.872;2024-03-23T01:53:14;99091.56;;;7.67;56.77
8573;BME280;4324;42.012;24.872;2024-03-23T01:55:43;99088.25;;;7.65;56.77
8573;BME280;4324;42.012;24.872;2024-03-23T01:58:09;99073.75;;;7.51;57.13
8573;BME280;4324;42.012;24.872;2024-03-23T02:00:37;99088.00;;;7.59;57.22
8573;BME280;4324;42.012;24.872;2024-03-23T02:03:22;99081.53;;;7.53;57.34
8573;BME280;4324;42.012;24.872;2024-03-23T02:05:48;99083.03;;;7.56;57.35
8573;BME280;4324;42.012;24.872;2024-03-23T02:08:14;99060.63;;;7.42;57.17
8573;BME280;4324;42.012;24.872;2024-03-23T02:10:41;99093.28;;;7.59;57.52
8573;BME280;4324;42.012;24.872;2024-03-23T02:13:08;99093.97;;;7.61;57.83
8573;BME280;4324;42.012;24.872;2024-03-23T02:15:34;99089.13;;;7.56;58.05
8573;BME280;4324;42.012;24.872;2024-03-23T02:18:02;99085.94;;;7.52;58.41
8573;BME280;4324;42.012;24.872;2024-03-23T02:20:29;99098.69;;;7.57;58.82
8573;BME280;4324;42.012;24.872;2024-03-23T02:22:56;99088.44;;;7.54;58.85
8573;BME280;4324;42.012;24.872;2024-03-23T02:25:23;99086.91;;;7.51;58.76
8573;BME280;4324;42.012;24.872;2024-03-23T02:27:49;98993.44;;;6.91;58.58
8573;BME280;4324;42.012;24.872;2024-03-23T02:30:16;99084.56;;;7.48;58.78
8573;BME280;4324;42.012;24.872;2024-03-23T02:32:42;99084.16;;;7.53;58.88
8573;BME280;4324;42.012;24.872;2024-03-23T02:35:09;99074.19;;;7.47;59.21
8573;BME280;4324;42.012;24.872;2024-03-23T02:37:34;99053.72;;;7.31;59.07
8573;BME280;4324;42.012;24.872;2024-03-23T02:40:03;99079.75;;;7.44;58.94
8573;BME280;4324;42.012;24.872;2024-03-23T02:42:30;99066.75;;;7.33;59.12
8573;BME280;4324;42.012;24.872;2024-03-23T02:44:58;99087.25;;;7.39;59.15
8573;BME280;4324;42.012;24.872;2024-03-23T02:47:24;99074.66;;;7.33;59.06
8573;BME280;4324;42.012;24.872;2024-03-23T02:49:51;99082.00;;;7.39;59.10
8573;BME280;4324;42.012;24.872;2024-03-23T02:52:16;99064.66;;;7.26;59.28
8573;BME280;4324;42.012;24.872;2024-03-23T02:54:43;99083.25;;;7.35;59.41
8573;BME280;4324;42.012;24.872;2024-03-23T02:57:12;99078.94;;;7.34;59.43
8573;BME280;4324;42.012;24.872;2024-03-23T02:59:39;99064.81;;;7.25;59.84
8573;BME280;4324;42.012;24.872;2024-03-23T03:02:05;99053.47;;;7.15;60.15
8573;BME280;4324;42.012;24.872;2024-03-23T03:04:32;99046.03;;;7.10;60.30
8573;BME280;4324;42.012;24.872;2024-03-23T03:06:58;99080.47;;;7.26;60.32
8573;BME280;4324;42.012;24.872;2024-03-23T03:09:25;99048.81;;;7.09;60.05
8573;BME280;4324;42.012;24.872;2024-03-23T03:11:51;99065.81;;;7.14;60.14
8573;BME280;4324;42.012;24.872;2024-03-23T03:14:19;99080.63;;;7.25;60.27
8573;BME280;4324;42.012;24.872;2024-03-23T03:16:45;99073.84;;;7.22;60.38
8573;BME280;4324;42.012;24.872;2024-03-23T03:19:12;99071.19;;;7.22;60.92
8573;BME280;4324;42.012;24.872;2024-03-23T03:21:38;99047.66;;;7.11;61.32
8573;BME280;4324;42.012;24.872;2024-03-23T03:24:06;99070.09;;;7.25;61.31
8573;BME280;4324;42.012;24.872;2024-03-23T03:26:32;99083.81;;;7.28;61.29
8573;BME280;4324;42.012;24.872;2024-03-23T03:28:59;99080.34;;;7.28;61.17
8573;BME280;4324;42.012;24.872;2024-03-23T03:31:26;99052.09;;;7.20;60.77
8573;BME280;4324;42.012;24.872;2024-03-23T03:33:53;99070.66;;;7.28;60.68
8573;BME280;4324;42.012;24.872;2024-03-23T03:36:19;99066.34;;;7.27;60.33
8573;BME280;4324;42.012;24.872;2024-03-23T03:38:46;99079.25;;;7.31;60.67
8573;BME280;4324;42.012;24.872;2024-03-23T03:41:12;99069.00;;;7.27;60.98
8573;BME280;4324;42.012;24.872;2024-03-23T03:43:40;99073.97;;;7.31;61.50
8573;BME280;4324;42.012;24.872;2024-03-23T03:46:06;99044.63;;;7.16;61.68
8573;BME280;4324;42.012;24.872;2024-03-23T03:48:35;99075.91;;;7.28;61.88
8573;BME280;4324;42.012;24.872;2024-03-23T03:51:00;99067.75;;;7.22;61.31
8573;BME280;4324;42.012;24.872;2024-03-23T03:53:27;99047.56;;;7.03;61.06
8573;BME280;4324;42.012;24.872;2024-03-23T03:55:53;99078.44;;;7.20;61.16
8573;BME280;4324;42.012;24.872;2024-03-23T03:58:24;99089.63;;;7.22;61.20
8573;BME280;4324;42.012;24.872;2024-03-23T04:00:50;99087.31;;;7.19;61.34
8573;BME280;4324;42.012;24.872;2024-03-23T04:03:17;99088.16;;;7.10;61.46
8573;BME280;4324;42.012;24.872;2024-03-23T04:05:50;99094.50;;;7.17;61.84
8573;BME280;4324;42.012;24.872;2024-03-23T04:08:17;99090.63;;;7.12;62.09
8573;BME280;4324;42.012;24.872;2024-03-23T04:10:44;99097.03;;;7.09;62.32
8573;BME280;4324;42.012;24.872;2024-03-23T04:13:11;99096.88;;;7.11;62.28
8573;BME280;4324;42.012;24.872;2024-03-23T04:15:38;99099.25;;;7.04;62.17
8573;BME280;4324;42.012;24.872;2024-03-23T04:18:04;99095.94;;;7.02;62.59
8573;BME280;4324;42.012;24.872;2024-03-23T04:20:31;99101.59;;;7.07;62.54
8573;BME280;4324;42.012;24.872;2024-03-23T04:22:59;99110.31;;;7.08;62.71
8573;BME280;4324;42.012;24.872;2024-03-23T04:25:26;99100.75;;;7.07;63.13
8573;BME280;4324;42.012;24.872;2024-03-23T04:27:52;99085.69;;;6.99;63.39
8573;BME280;4324;42.012;24.872;2024-03-23T04:30:19;99099.53;;;7.01;63.75
8573;BME280;4324;42.012;24.872;2024-03-23T04:32:45;99106.31;;;7.03;64.42
8573;BME280;4324;42.012;24.872;2024-03-23T04:35:11;99100.78;;;6.97;64.15
8573;BME280;4324;42.012;24.872;2024-03-23T04:37:38;99092.75;;;6.89;64.27
8573;BME280;4324;42.012;24.872;2024-03-23T04:40:09;99060.38;;;6.69;64.71
8573;BME280;4324;42.012;24.872;2024-03-23T04:42:36;99092.88;;;6.97;64.46
8573;BME280;4324;42.012;24.872;2024-03-23T04:45:04;99110.47;;;7.06;64.24
8573;BME280;4324;42.012;24.872;2024-03-23T04:47:32;99095.94;;;7.02;64.46
8573;BME280;4324;42.012;24.872;2024-03-23T04:50:01;99092.31;;;7.03;65.46
8573;BME280;4324;42.012;24.872;2024-03-23T04:52:29;99101.72;;;7.15;65.58
8573;BME280;4324;42.012;24.872;2024-03-23T04:54:56;99096.75;;;7.12;65.29
8573;BME280;4324;42.012;24.872;2024-03-23T04:57:24;99102.25;;;7.19;64.54
8573;BME280;4324;42.012;24.872;2024-03-23T04:59:50;99096.88;;;7.20;64.90
8573;BME280;4324;42.012;24.872;2024-03-23T05:02:17;99102.94;;;7.31;65.88
8573;BME280;4324;42.012;24.872;2024-03-23T05:04:43;99105.28;;;7.34;65.70
8573;BME280;4324;42.012;24.872;2024-03-23T05:07:10;99092.25;;;7.32;65.96
8573;BME280;4324;42.012;24.872;2024-03-23T05:09:36;99094.75;;;7.34;66.05
8573;BME280;4324;42.012;24.872;2024-03-23T05:12:04;99102.91;;;7.40;65.58
8573;BME280;4324;42.012;24.872;2024-03-23T05:14:31;98999.53;;;6.82;67.12
8573;BME280;4324;42.012;24.872;2024-03-23T05:16:58;99093.63;;;7.46;66.09
8573;BME280;4324;42.012;24.872;2024-03-23T05:19:24;99105.78;;;7.57;66.49
8573;BME280;4324;42.012;24.872;2024-03-23T05:21:51;99086.38;;;7.48;66.27
8573;BME280;4324;42.012;24.872;2024-03-23T05:24:18;99096.06;;;7.57;67.07
8573;BME280;4324;42.012;24.872;2024-03-23T05:26:45;99112.25;;;7.62;67.13
8573;BME280;4324;42.012;24.872;2024-03-23T05:29:11;99077.75;;;7.56;67.56
8573;BME280;4324;42.012;24.872;2024-03-23T05:31:40;99106.91;;;7.82;67.74
8573;BME280;4324;42.012;24.872;2024-03-23T05:34:07;99100.38;;;7.86;69.13
8573;BME280;4324;42.012;24.872;2024-03-23T05:36:34;99086.09;;;7.79;67.05
8573;BME280;4324;42.012;24.872;2024-03-23T05:39:01;99093.69;;;7.91;66.96
8573;BME280;4324;42.012;24.872;2024-03-23T05:41:28;99097.94;;;8.02;67.10
8573;BME280;4324;42.012;24.872;2024-03-23T05:43:54;99087.22;;;8.04;67.39
8573;BME280;4324;42.012;24.872;2024-03-23T05:46:21;99095.38;;;8.10;67.02
8573;BME280;4324;42.012;24.872;2024-03-23T05:48:48;99086.06;;;8.16;67.63
8573;BME280;4324;42.012;24.872;2024-03-23T05:51:17;99063.75;;;8.10;67.41
8573;BME280;4324;42.012;24.872;2024-03-23T05:53:42;99087.28;;;8.21;66.53
8573;BME280;4324;42.012;24.872;2024-03-23T05:56:09;99096.09;;;8.30;67.13
8573;BME280;4324;42.012;24.872;2024-03-23T05:58:35;99071.22;;;8.33;67.98
8573;BME280;4324;42.012;24.872;2024-03-23T06:01:03;99055.97;;;8.27;68.87
8573;BME280;4324;42.012;24.872;2024-03-23T06:03:29;99091.63;;;8.58;68.89
8573;BME280;4324;42.012;24.872;2024-03-23T06:05:57;99094.63;;;8.63;69.62
8573;BME280;4324;42.012;24.872;2024-03-23T06:08:23;99089.75;;;8.68;69.16
8573;BME280;4324;42.012;24.872;2024-03-23T06:10:50;99081.00;;;8.68;68.64
8573;BME280;4324;42.012;24.872;2024-03-23T06:13:17;99075.19;;;8.64;68.98
8573;BME280;4324;42.012;24.872;2024-03-23T06:15:44;99074.25;;;8.73;68.82
8573;BME280;4324;42.012;24.872;2024-03-23T06:18:12;99078.66;;;8.83;69.09
8573;BME280;4324;42.012;24.872;2024-03-23T06:20:39;99082.38;;;8.98;68.41
8573;BME280;4324;42.012;24.872;2024-03-23T06:23:06;99075.66;;;9.04;67.62
8573;BME280;4324;42.012;24.872;2024-03-23T06:25:33;99084.81;;;9.17;66.52
8573;BME280;4324;42.012;24.872;2024-03-23T06:27:59;99083.44;;;9.31;65.90
8573;BME280;4324;42.012;24.872;2024-03-23T06:30:27;99083.63;;;9.38;65.54
8573;BME280;4324;42.012;24.872;2024-03-23T06:32:53;99083.19;;;9.42;65.21
8573;BME280;4324;42.012;24.872;2024-03-23T06:35:20;99065.50;;;9.43;64.67
8573;BME280;4324;42.012;24.872;2024-03-23T06:37:46;99066.88;;;9.55;65.16
8573;BME280;4324;42.012;24.872;2024-03-23T06:40:14;99074.22;;;9.69;64.80
8573;BME280;4324;42.012;24.872;2024-03-23T06:42:40;99078.53;;;9.79;63.36
8573;BME280;4324;42.012;24.872;2024-03-23T06:45:07;99093.47;;;9.88;63.11
8573;BME280;4324;42.012;24.872;2024-03-23T06:47:33;99069.63;;;9.72;63.12
8573;BME280;4324;42.012;24.872;2024-03-23T06:50:01;99078.19;;;9.74;63.17
8573;BME280;4324;42.012;24.872;2024-03-23T06:52:28;99085.81;;;9.77;63.02
8573;BME280;4324;42.012;24.872;2024-03-23T06:54:55;99094.56;;;9.77;62.92
8573;BME280;4324;42.012;24.872;2024-03-23T06:57:22;99088.47;;;9.77;62.83
8573;BME280;4324;42.012;24.872;2024-03-23T06:59:49;99088.97;;;9.80;62.85
8573;BME280;4324;42.012;24.872;2024-03-23T07:02:15;99082.88;;;9.88;62.69
8573;BME280;4324;42.012;24.872;2024-03-23T07:04:45;99083.59;;;9.98;62.10
8573;BME280;4324;42.012;24.872;2024-03-23T07:07:11;99080.66;;;10.09;61.85
8573;BME280;4324;42.012;24.872;2024-03-23T07:09:38;99068.25;;;10.10;61.60
8573;BME280;4324;42.012;24.872;2024-03-23T07:12:04;99067.94;;;10.21;61.39
8573;BME280;4324;42.012;24.872;2024-03-23T07:14:33;99070.16;;;10.34;61.29
8573;BME280;4324;42.012;24.872;2024-03-23T07:17:02;99070.19;;;10.42;61.03
8573;BME280;4324;42.012;24.872;2024-03-23T07:19:29;99056.75;;;10.35;60.98
8573;BME280;4324;42.012;24.872;2024-03-23T07:21:54;99056.09;;;10.41;60.80
8573;BME280;4324;42.012;24.872;2024-03-23T07:24:21;99064.56;;;10.53;60.71
8573;BME280;4324;42.012;24.872;2024-03-23T07:26:47;99062.06;;;10.60;60.45
8573;BME280;4324;42.012;24.872;2024-03-23T07:29:16;99052.66;;;10.57;60.19
8573;BME280;4324;42.012;24.872;2024-03-23T07:31:44;99037.41;;;10.59;60.04
8573;BME280;4324;42.012;24.872;2024-03-23T07:34:11;99058.25;;;10.71;60.21
8573;BME280;4324;42.012;24.872;2024-03-23T07:36:37;99010.94;;;10.43;59.65
8573;BME280;4324;42.012;24.872;2024-03-23T07:39:03;99043.38;;;10.53;59.69
8573;BME280;4324;42.012;24.872;2024-03-23T07:41:29;99031.13;;;10.52;59.71
8573;BME280;4324;42.012;24.872;2024-03-23T07:43:57;99040.41;;;10.64;59.43
8573;BME280;4324;42.012;24.872;2024-03-23T07:46:23;99055.28;;;10.74;59.20
8573;BME280;4324;42.012;24.872;2024-03-23T07:48:52;99033.44;;;10.63;59.11
8573;BME280;4324;42.012;24.872;2024-03-23T07:51:21;99041.41;;;10.72;58.88
8573;BME280;4324;42.012;24.872;2024-03-23T07:53:48;99045.50;;;10.82;58.78
8573;BME280;4324;42.012;24.872;2024-03-23T07:56:16;99029.81;;;10.81;58.30
8573;BME280;4324;42.012;24.872;2024-03-23T07:58:44;99049.16;;;10.98;58.06
8573;BME280;4324;42.012;24.872;2024-03-23T08:01:11;99035.22;;;11.04;58.10
8573;BME280;4324;42.012;24.872;2024-03-23T08:03:40;99046.66;;;11.21;58.11
8573;BME280;4324;42.012;24.872;2024-03-23T08:06:09;99033.22;;;11.22;57.66
8573;BME280;4324;42.012;24.872;2024-03-23T08:08:39;99051.06;;;11.36;57.70
8573;BME280;4324;42.012;24.872;2024-03-23T08:11:06;99026.75;;;11.25;57.45
8573;BME280;4324;42.012;24.872;2024-03-23T08:13:33;99053.53;;;11.46;57.43
8573;BME280;4324;42.012;24.872;2024-03-23T08:16:00;99041.59;;;11.50;57.29
8573;BME280;4324;42.012;24.872;2024-03-23T08:18:27;99037.25;;;11.57;57.37
8573;BME280;4324;42.012;24.872;2024-03-23T08:20:57;99029.09;;;11.67;57.00
8573;BME280;4324;42.012;24.872;2024-03-23T08:23:26;99039.16;;;11.80;56.88
8573;BME280;4324;42.012;24.872;2024-03-23T08:25:57;99035.13;;;11.92;56.88
8573;BME280;4324;42.012;24.872;2024-03-23T08:28:24;99038.41;;;12.02;57.13
8573;BME280;4324;42.012;24.872;2024-03-23T08:30:50;99023.94;;;12.05;57.05
8573;BME280;4324;42.012;24.872;2024-03-23T08:33:17;99023.47;;;12.01;56.80
8573;BME280;4324;42.012;24.872;2024-03-23T08:35:43;99018.28;;;12.08;56.58
8573;BME280;4324;42.012;24.872;2024-03-23T08:38:19;99006.50;;;12.10;56.81
8573;BME280;4324;42.012;24.872;2024-03-23T08:40:46;99010.72;;;12.28;56.52
8573;BME280;4324;42.012;24.872;2024-03-23T08:43:13;99007.81;;;12.38;56.08
8573;BME280;4324;42.012;24.872;2024-03-23T08:45:39;98968.28;;;12.20;55.87
8573;BME280;4324;42.012;24.872;2024-03-23T08:48:06;99007.88;;;12.52;55.59
8573;BME280;4324;42.012;24.872;2024-03-23T08:50:32;98997.53;;;12.57;55.57
8573;BME280;4324;42.012;24.872;2024-03-23T08:52:59;98983.88;;;12.60;55.67
8573;BME280;4324;42.012;24.872;2024-03-23T08:55:26;98996.13;;;12.84;55.73
8573;BME280;4324;42.012;24.872;2024-03-23T08:57:54;98966.91;;;12.84;55.33
8573;BME280;4324;42.012;24.872;2024-03-23T09:00:21;98988.09;;;13.07;55.07
8573;BME280;4324;42.012;24.872;2024-03-23T09:02:48;98977.66;;;13.21;55.02
8573;BME280;4324;42.012;24.872;2024-03-23T09:05:14;98972.09;;;13.30;54.88
8573;BME280;4324;42.012;24.872;2024-03-23T09:07:41;98975.63;;;13.52;54.52
8573;BME280;4324;42.012;24.872;2024-03-23T09:10:08;98982.16;;;13.65;54.48
8573;BME280;4324;42.012;24.872;2024-03-23T09:12:34;98971.75;;;13.70;54.55
8573;BME280;4324;42.012;24.872;2024-03-23T09:15:02;98966.81;;;13.67;54.24
8573;BME280;4324;42.012;24.872;2024-03-23T09:17:29;98955.63;;;13.56;53.80
8573;BME280;4324;42.012;24.872;2024-03-23T09:19:55;98957.81;;;13.68;54.03
8573;BME280;4324;42.012;24.872;2024-03-23T09:22:25;98955.13;;;13.83;54.01
8573;BME280;4324;42.012;24.872;2024-03-23T09:24:51;98951.47;;;13.84;54.08
8573;BME280;4324;42.012;24.872;2024-03-23T09:27:18;98935.59;;;13.75;53.68
8573;BME280;4324;42.012;24.872;2024-03-23T09:29:43;98959.69;;;13.89;53.93
8573;BME280;4324;42.012;24.872;2024-03-23T09:32:12;98947.97;;;13.83;53.34
8573;BME280;4324;42.012;24.872;2024-03-23T09:34:38;98924.25;;;13.67;52.85
8573;BME280;4324;42.012;24.872;2024-03-23T09:37:06;98935.78;;;13.74;53.17
8573;BME280;4324;42.012;24.872;2024-03-23T09:39:32;98940.41;;;13.87;53.14
8573;BME280;4324;42.012;24.872;2024-03-23T09:41:59;98936.75;;;13.88;53.31
8573;BME280;4324;42.012;24.872;2024-03-23T09:44:25;98922.06;;;13.92;53.15
8573;BME280;4324;42.012;24.872;2024-03-23T09:46:55;98925.03;;;14.03;53.19
8573;BME280;4324;42.012;24.872;2024-03-23T09:49:23;98892.94;;;13.90;53.14
8573;BME280;4324;42.012;24.872;2024-03-23T09:51:50;98920.59;;;14.11;52.81
8573;BME280;4324;42.012;24.872;2024-03-23T09:54:16;98916.16;;;14.18;52.78
8573;BME280;4324;42.012;24.872;2024-03-23T09:56:43;98919.72;;;14.25;52.38
8573;BME280;4324;42.012;24.872;2024-03-23T09:59:09;98915.28;;;14.32;52.53
8573;BME280;4324;42.012;24.872;2024-03-23T10:01:36;98896.34;;;14.27;52.51
8573;BME280;4324;42.012;24.872;2024-03-23T10:04:03;98907.38;;;14.45;52.33
8573;BME280;4324;42.012;24.872;2024-03-23T10:06:32;98909.97;;;14.60;52.37
8573;BME280;4324;42.012;24.872;2024-03-23T10:08:58;98894.84;;;14.67;52.22
8573;BME280;4324;42.012;24.872;2024-03-23T10:11:25;98875.16;;;14.62;51.72
8573;BME280;4324;42.012;24.872;2024-03-23T10:13:52;98888.78;;;14.80;52.04
8573;BME280;4324;42.012;24.872;2024-03-23T10:16:23;98875.81;;;14.70;51.39
8573;BME280;4324;42.012;24.872;2024-03-23T10:18:49;98887.53;;;14.76;51.31
8573;BME280;4324;42.012;24.872;2024-03-23T10:21:16;98874.22;;;14.76;51.11
8573;BME280;4324;42.012;24.872;2024-03-23T10:23:44;98866.06;;;14.84;50.97
8573;BME280;4324;42.012;24.872;2024-03-23T10:26:17;98862.56;;;14.84;50.38
8573;BME280;4324;42.012;24.872;2024-03-23T10:28:51;98863.44;;;14.91;50.67
8573;BME280;4324;42.012;24.872;2024-03-23T10:31:19;98850.09;;;14.91;50.33
8573;BME280;4324;42.012;24.872;2024-03-23T10:33:46;98861.41;;;14.99;50.08
8573;BME280;4324;42.012;24.872;2024-03-23T10:36:13;98860.63;;;15.06;49.75
8573;BME280;4324;42.012;24.872;2024-03-23T10:38:40;98844.22;;;15.09;50.21
8573;BME280;4324;42.012;24.872;2024-03-23T10:41:09;98846.31;;;15.20;50.06
8573;BME280;4324;42.012;24.872;2024-03-23T10:43:36;98839.38;;;15.25;49.02
8573;BME280;4324;42.012;24.872;2024-03-23T10:46:03;98831.38;;;15.25;49.11
8573;BME280;4324;42.012;24.872;2024-03-23T10:48:29;98818.84;;;15.26;48.61
8573;BME280;4324;42.012;24.872;2024-03-23T10:50:56;98827.09;;;15.38;48.62
8573;BME280;4324;42.012;24.872;2024-03-23T10:53:25;98817.06;;;15.46;48.08
8573;BME280;4324;42.012;24.872;2024-03-23T10:55:54;98813.78;;;15.51;47.10
8573;BME280;4324;42.012;24.872;2024-03-23T10:58:24;98811.94;;;15.52;47.11
8573;BME280;4324;42.012;24.872;2024-03-23T11:00:53;98797.53;;;15.46;46.98
8573;BME280;4324;42.012;24.872;2024-03-23T11:03:36;98799.22;;;15.54;46.79
8573;BME280;4324;42.012;24.872;2024-03-23T11:06:06;98798.81;;;15.57;46.51
8573;BME280;4324;42.012;24.872;2024-03-23T11:08:34;98788.56;;;15.54;46.70
8573;BME280;4324;42.012;24.872;2024-03-23T11:11:16;98787.53;;;15.61;46.37
8573;BME280;4324;42.012;24.872;2024-03-23T11:13:44;98783.25;;;15.67;46.69
8573;BME280;4324;42.012;24.872;2024-03-23T11:16:21;98783.25;;;15.73;46.52
8573;BME280;4324;42.012;24.872;2024-03-23T11:18:47;98751.22;;;15.67;46.57
8573;BME280;4324;42.012;24.872;2024-03-23T11:24:13;98760.84;;;16.01;46.36
8573;BME280;4324;42.012;24.872;2024-03-23T11:26:41;98756.56;;;16.13;46.33
8573;BME280;4324;42.012;24.872;2024-03-23T11:29:12;98752.19;;;16.26;46.10
8573;BME280;4324;42.012;24.872;2024-03-23T11:31:45;98740.06;;;16.23;46.17
8573;BME280;4324;42.012;24.872;2024-03-23T11:34:11;98743.16;;;16.27;45.88
8573;BME280;4324;42.012;24.872;2024-03-23T11:36:38;98745.81;;;16.40;45.88
8573;BME280;4324;42.012;24.872;2024-03-23T11:39:13;98713.75;;;16.33;45.33
8573;BME280;4324;42.012;24.872;2024-03-23T11:41:46;98726.88;;;16.48;45.45
8573;BME280;4324;42.012;24.872;2024-03-23T11:44:17;98715.34;;;16.48;45.55
8573;BME280;4324;42.012;24.872;2024-03-23T11:46:45;98722.75;;;16.45;45.46
8573;BME280;4324;42.012;24.872;2024-03-23T11:49:24;98713.28;;;16.50;45.29
8573;BME280;4324;42.012;24.872;2024-03-23T11:51:51;98708.31;;;16.60;45.40
8573;BME280;4324;42.012;24.872;2024-03-23T11:54:21;98694.91;;;16.66;45.34
8573;BME280;4324;42.012;24.872;2024-03-23T11:56:54;98692.22;;;16.73;45.27
8573;BME280;4324;42.012;24.872;2024-03-23T11:59:35;98695.09;;;16.78;45.36
8573;BME280;4324;42.012;24.872;2024-03-23T12:02:06;98688.50;;;16.81;45.51
8573;BME280;4324;42.012;24.872;2024-03-23T12:04:35;98684.53;;;16.90;45.14
8573;BME280;4324;42.012;24.872;2024-03-23T12:07:12;98681.41;;;17.00;44.73
8573;BME280;4324;42.012;24.872;2024-03-23T12:09:39;98653.91;;;16.86;44.92
8573;BME280;4324;42.012;24.872;2024-03-23T12:12:10;98680.16;;;17.02;44.90
8573;BME280;4324;42.012;24.872;2024-03-23T12:14:38;98663.47;;;17.07;44.90
8573;BME280;4324;42.012;24.872;2024-03-23T12:17:11;98666.50;;;17.17;44.58
8573;BME280;4324;42.012;24.872;2024-03-23T12:19:38;98650.09;;;17.07;44.29
8573;BME280;4324;42.012;24.872;2024-03-23T12:22:05;98647.41;;;17.07;44.53
8573;BME280;4324;42.012;24.872;2024-03-23T12:24:32;98651.63;;;17.21;44.49
8573;BME280;4324;42.012;24.872;2024-03-23T12:27:01;98639.47;;;17.25;44.35
8573;BME280;4324;42.012;24.872;2024-03-23T12:29:29;98634.69;;;17.27;44.19
8573;BME280;4324;42.012;24.872;2024-03-23T12:31:59;98649.59;;;17.41;44.19
8573;BME280;4324;42.012;24.872;2024-03-23T12:34:25;98644.25;;;17.41;44.08
8573;BME280;4324;42.012;24.872;2024-03-23T12:36:52;98627.75;;;17.45;44.06
8573;BME280;4324;42.012;24.872;2024-03-23T12:39:17;98627.47;;;17.53;43.91
8573;BME280;4324;42.012;24.872;2024-03-23T12:41:46;98625.41;;;17.55;43.33
8573;BME280;4324;42.012;24.872;2024-03-23T12:44:12;98630.16;;;17.53;43.26
8573;BME280;4324;42.012;24.872;2024-03-23T12:46:39;98622.94;;;17.53;43.20
8573;BME280;4324;42.012;24.872;2024-03-23T12:49:07;98618.72;;;17.64;43.01
8573;BME280;4324;42.012;24.872;2024-03-23T12:51:34;98608.84;;;17.64;43.28
8573;BME280;4324;42.012;24.872;2024-03-23T12:54:00;98606.38;;;17.63;43.52
8573;BME280;4324;42.012;24.872;2024-03-23T12:56:27;98592.47;;;17.54;43.64
8573;BME280;4324;42.012;24.872;2024-03-23T12:58:53;98607.00;;;17.65;43.52
8573;BME280;4324;42.012;24.872;2024-03-23T13:01:21;98603.72;;;17.63;42.93
8573;BME280;4324;42.012;24.872;2024-03-23T13:03:47;98602.66;;;17.64;42.85
8573;BME280;4324;42.012;24.872;2024-03-23T13:06:15;98606.63;;;17.61;42.84
8573;BME280;4324;42.012;24.872;2024-03-23T13:08:44;98594.69;;;17.57;42.62
8573;BME280;4324;42.012;24.872;2024-03-23T13:11:11;98578.72;;;17.51;42.59
8573;BME280;4324;42.012;24.872;2024-03-23T13:13:37;98591.94;;;17.64;42.46
8573;BME280;4324;42.012;24.872;2024-03-23T13:16:05;98565.63;;;17.61;42.27
8573;BME280;4324;42.012;24.872;2024-03-23T13:18:32;98575.38;;;17.74;42.44
8573;BME280;4324;42.012;24.872;2024-03-23T13:20:59;98576.84;;;17.76;42.18
8573;BME280;4324;42.012;24.872;2024-03-23T13:23:26;98565.13;;;17.71;42.15
8573;BME280;4324;42.012;24.872;2024-03-23T13:25:54;98573.59;;;17.67;41.99
8573;BME280;4324;42.012;24.872;2024-03-23T13:28:20;98562.75;;;17.62;41.48
8573;BME280;4324;42.012;24.872;2024-03-23T13:30:51;98564.00;;;17.60;41.20
8573;BME280;4324;42.012;24.872;2024-03-23T13:33:17;98567.84;;;17.64;41.35
8573;BME280;4324;42.012;24.872;2024-03-23T13:35:51;98562.69;;;17.69;40.97
8573;BME280;4324;42.012;24.872;2024-03-23T13:38:17;98566.75;;;17.72;40.64
8573;BME280;4324;42.012;24.872;2024-03-23T13:40:52;98555.81;;;17.73;40.16
8573;BME280;4324;42.012;24.872;2024-03-23T13:43:20;98533.66;;;17.66;40.04
8573;BME280;4324;42.012;24.872;2024-03-23T13:45:47;98553.13;;;17.80;40.14
8573;BME280;4324;42.012;24.872;2024-03-23T13:48:14;98546.25;;;17.84;40.17
8573;BME280;4324;42.012;24.872;2024-03-23T13:50:41;98541.28;;;17.87;39.77
8573;BME280;4324;42.012;24.872;2024-03-23T13:53:07;98541.53;;;17.98;39.61
8573;BME280;4324;42.012;24.872;2024-03-23T13:55:34;98515.69;;;17.92;39.68
8573;BME280;4324;42.012;24.872;2024-03-23T13:58:02;98519.19;;;17.92;39.58
8573;BME280;4324;42.012;24.872;2024-03-23T14:00:29;98516.13;;;17.88;39.88
8573;BME280;4324;42.012;24.872;2024-03-23T14:02:57;98524.16;;;17.88;40.15
8573;BME280;4324;42.012;24.872;2024-03-23T14:05:24;98515.63;;;17.80;40.25
8573;BME280;4324;42.012;24.872;2024-03-23T14:07:50;98519.69;;;17.82;39.95
8573;BME280;4324;42.012;24.872;2024-03-23T14:10:17;98491.78;;;17.72;39.64
8573;BME280;4324;42.012;24.872;2024-03-23T14:12:43;98511.34;;;17.90;39.60